createdAt,value
2022-10-06T00:01:45.095Z,15.43
2022-10-06T00:06:47.490Z,15.43
2022-10-06T00:11:49.849Z,13.60
2022-10-06T00:16:52.189Z,14.02
2022-10-06T00:21:54.573Z,18.38
2022-10-06T00:26:56.909Z,16.02
2022-10-06T00:31:59.219Z,15.45
2022-10-06T00:37:02.746Z,13.23
2022-10-06T00:42:05.374Z,14.10
2022-10-06T00:47:08.555Z,10.30
2022-10-06T00:52:13.402Z,13.27
2022-10-06T00:57:16.057Z,14.43
2022-10-06T01:02:21.185Z,11.85
2022-10-06T01:07:25.990Z,12.35
2022-10-06T01:12:29.870Z,16.27
2022-10-06T01:17:52.535Z,12.57
2022-10-06T01:23:06.718Z,13.15
2022-10-06T01:28:09.991Z,14.07
2022-10-06T01:33:12.623Z,14.65
2022-10-06T01:38:15.744Z,15.27
2022-10-06T01:43:19.184Z,11.93
2022-10-06T01:48:21.670Z,14.35
2022-10-06T01:53:25.064Z,16.42
2022-10-06T01:58:27.890Z,17.38
2022-10-06T02:03:30.717Z,13.68
2022-10-06T02:08:33.344Z,14.65
2022-10-06T02:13:38.404Z,14.80
2022-10-06T02:18:41.240Z,13.77
2022-10-06T02:23:43.637Z,14.15
2022-10-06T02:28:47.357Z,16.35
2022-10-06T02:33:54.193Z,16.60
2022-10-06T02:38:59.092Z,13.98
2022-10-06T02:44:01.907Z,15.88
2022-10-06T02:49:05.644Z,14.00
2022-10-06T02:54:10.077Z,14.05
2022-10-06T02:59:12.423Z,15.60
2022-10-06T03:04:17.441Z,16.50
2022-10-06T03:09:20.786Z,17.23
2022-10-06T03:14:23.526Z,18.25
2022-10-06T03:19:26.601Z,18.15
2022-10-06T03:24:29.689Z,18.17
2022-10-06T03:29:35.171Z,16.17
2022-10-06T03:34:38.899Z,17.20
2022-10-06T03:39:44.462Z,16.17
2022-10-06T03:44:47.426Z,15.10
2022-10-06T03:49:49.795Z,16.90
2022-10-06T03:54:52.489Z,15.05
2022-10-06T03:59:59.291Z,17.27
2022-10-06T04:05:01.895Z,18.20
2022-10-06T04:10:05.966Z,16.73
2022-10-06T04:15:08.723Z,15.45
2022-10-06T04:20:11.930Z,18.55
2022-10-06T04:25:14.294Z,14.85
2022-10-06T04:30:17.029Z,18.48
2022-10-06T04:35:20.313Z,14.32
2022-10-06T04:40:22.923Z,17.75
2022-10-06T04:45:25.932Z,13.85
2022-10-06T04:50:28.378Z,13.90
2022-10-06T04:55:42.897Z,11.75
2022-10-06T05:00:45.238Z,12.05
2022-10-06T05:05:47.654Z,15.85
2022-10-06T05:10:50.242Z,11.55
2022-10-06T05:15:57.296Z,11.07
2022-10-06T05:21:06.804Z,10.55
2022-10-06T05:26:12.467Z,12.88
2022-10-06T05:31:20.299Z,10.88
2022-10-06T05:36:25.699Z,10.10
2022-10-06T05:41:32.219Z,12.40
2022-10-06T05:46:37.570Z,12.63
2022-10-06T05:51:40.651Z,11.57
2022-10-06T05:56:57.121Z,8.00
2022-10-06T06:02:00.371Z,10.07
2022-10-06T06:07:16.481Z,11.90
2022-10-06T06:12:20.667Z,10.02
2022-10-06T06:17:33.419Z,10.30
2022-10-06T06:22:38.110Z,11.68
2022-10-06T06:27:42.344Z,8.98
2022-10-06T06:32:45.331Z,12.35
2022-10-06T06:37:49.116Z,9.00
2022-10-06T06:42:53.811Z,13.68
2022-10-06T06:48:22.758Z,9.63
2022-10-06T06:53:26.026Z,11.80
2022-10-06T06:58:33.075Z,7.90
2022-10-06T07:03:56.610Z,10.77
2022-10-06T07:08:59.706Z,6.47
2022-10-06T07:14:12.628Z,6.82
2022-10-06T07:19:38.652Z,10.48
2022-10-06T07:25:00.508Z,8.35
2022-10-06T07:30:04.331Z,6.88
2022-10-06T07:35:07.787Z,6.18
2022-10-06T07:40:12.027Z,6.07
2022-10-06T07:45:38.991Z,7.60
2022-10-06T07:50:48.001Z,7.60
2022-10-06T07:55:53.250Z,5.30
2022-10-06T08:01:05.600Z,6.88
2022-10-06T08:06:14.333Z,5.18
2022-10-06T08:11:16.831Z,6.13
2022-10-06T08:16:21.465Z,6.68
2022-10-06T08:21:26.782Z,5.72
2022-10-06T08:26:31.096Z,5.38
2022-10-06T08:31:33.467Z,4.40
2022-10-06T08:36:35.954Z,5.50
2022-10-06T08:41:46.727Z,6.35
2022-10-06T08:46:56.414Z,4.72
2022-10-06T08:52:14.389Z,5.35
2022-10-06T08:57:22.583Z,4.80
2022-10-06T09:02:39.318Z,4.38
2022-10-06T09:08:12.531Z,3.03
2022-10-06T09:13:22.220Z,5.20
2022-10-06T09:19:03.487Z,5.97
2022-10-06T09:24:11.183Z,3.90
2022-10-06T09:29:14.712Z,5.85
2022-10-06T09:34:22.320Z,2.70
2022-10-06T09:44:31.217Z,4.03
2022-10-06T09:49:33.826Z,2.58
2022-10-06T09:54:37.613Z,3.50
2022-10-06T09:59:47.015Z,2.45
2022-10-06T10:04:54.922Z,2.42
2022-10-06T10:10:18.668Z,1.23
2022-10-06T10:15:20.927Z,4.03
2022-10-06T10:20:28.277Z,1.77
2022-10-06T10:25:31.006Z,4.15
2022-10-06T10:30:45.440Z,4.68
2022-10-06T10:35:52.030Z,1.77
2022-10-06T10:41:00.976Z,3.55
2022-10-06T10:46:07.210Z,2.47
2022-10-06T10:51:15.034Z,4.13
2022-10-06T10:56:20.710Z,2.35
2022-10-06T11:01:55.164Z,3.00
2022-10-06T11:07:03.567Z,2.67
2022-10-06T11:12:17.609Z,2.28
2022-10-06T11:17:44.657Z,4.03
2022-10-06T11:23:08.278Z,3.35
2022-10-06T11:28:25.216Z,4.03
2022-10-06T11:33:30.600Z,4.07
2022-10-06T11:38:40.627Z,1.67
2022-10-06T11:43:48.991Z,5.63
2022-10-06T11:48:51.311Z,2.55
2022-10-06T11:53:54.528Z,1.48
2022-10-06T11:58:56.814Z,3.15
2022-10-06T12:04:24.341Z,3.90
2022-10-06T12:09:33.173Z,2.17
2022-10-06T12:16:35.264Z,3.83
2022-10-06T12:20:17.532Z,3.35
2022-10-06T12:25:43.357Z,4.68
2022-10-06T12:31:07.605Z,1.77
2022-10-06T12:36:23.142Z,2.90
2022-10-06T12:42:02.958Z,3.60
2022-10-06T12:47:21.349Z,3.60
2022-10-06T12:52:51.657Z,1.60
2022-10-06T12:57:54.316Z,3.08
2022-10-06T13:02:58.504Z,2.53
2022-10-06T13:08:06.664Z,6.20
2022-10-06T13:13:24.792Z,4.68
2022-10-06T13:18:28.762Z,4.13
2022-10-06T13:23:33.269Z,3.67
2022-10-06T13:28:44.250Z,4.38
2022-10-06T13:33:49.521Z,2.65
2022-10-06T13:38:53.429Z,3.60
2022-10-06T13:44:05.097Z,2.08
2022-10-06T13:49:43.186Z,2.58
2022-10-06T13:54:58.693Z,6.40
2022-10-06T14:00:16.628Z,6.43
2022-10-06T14:05:27.826Z,5.57
2022-10-06T14:10:48.463Z,2.45
2022-10-06T14:15:53.785Z,6.28
2022-10-06T14:20:57.751Z,4.80
2022-10-06T14:26:00.370Z,4.80
2022-10-06T14:31:02.777Z,4.75
2022-10-06T14:36:05.940Z,3.42
2022-10-06T14:41:08.371Z,4.25
2022-10-06T14:46:11.673Z,4.03
2022-10-06T14:51:14.062Z,4.93
2022-10-06T14:56:16.636Z,5.53
2022-10-06T15:01:20.861Z,6.47
2022-10-06T15:06:42.418Z,4.28
2022-10-06T15:11:44.931Z,9.65
2022-10-06T15:16:47.659Z,5.07
2022-10-06T15:21:50.365Z,2.75
2022-10-06T15:27:11.357Z,6.25
2022-10-06T15:32:14.110Z,2.10
2022-10-06T15:37:16.869Z,5.75
2022-10-06T15:42:21.730Z,8.68
2022-10-06T15:47:24.900Z,6.90
2022-10-06T15:52:27.411Z,5.97
2022-10-06T15:57:31.027Z,4.72
2022-10-06T16:02:35.712Z,6.50
2022-10-06T16:07:38.424Z,6.13
2022-10-06T16:12:40.754Z,7.05
2022-10-06T16:17:43.020Z,6.82
2022-10-06T16:22:45.449Z,9.80
2022-10-06T16:27:47.723Z,9.02
2022-10-06T16:32:50.086Z,6.85
2022-10-06T16:37:52.380Z,28.30
2022-10-06T16:42:54.881Z,40.70
2022-10-06T16:47:57.322Z,19.83
2022-10-06T16:52:59.602Z,12.57
2022-10-06T16:58:01.862Z,20.90
2022-10-06T17:03:04.232Z,17.77
2022-10-06T17:08:06.513Z,15.93
2022-10-06T17:13:08.800Z,9.85
2022-10-06T17:18:11.065Z,8.13
2022-10-06T17:23:13.667Z,15.27
2022-10-06T17:28:16.076Z,13.85
2022-10-06T17:33:19.413Z,13.98
2022-10-06T17:38:21.941Z,11.77
2022-10-06T17:43:24.224Z,14.85
2022-10-06T17:48:27.268Z,15.23
2022-10-06T17:53:29.612Z,17.60
2022-10-06T17:58:31.899Z,13.57
2022-10-06T18:03:39.048Z,21.67
2022-10-06T18:08:45.347Z,26.75
2022-10-06T18:13:49.578Z,23.50
2022-10-06T18:18:53.711Z,29.70
2022-10-06T18:23:55.988Z,19.20
2022-10-06T18:28:58.273Z,17.90
2022-10-06T18:39:23.767Z,27.13
2022-10-06T18:44:44.885Z,29.85
2022-10-06T18:49:47.249Z,14.70
2022-10-06T18:54:50.177Z,14.82
2022-10-06T18:59:52.732Z,15.02
2022-10-06T19:04:55.316Z,11.80
2022-10-06T19:09:57.721Z,10.45
2022-10-06T19:15:00.210Z,10.65
2022-10-06T19:20:02.487Z,15.90
2022-10-06T19:25:05.106Z,12.60
2022-10-06T19:30:07.903Z,12.90
2022-10-06T19:35:10.885Z,15.73
2022-10-06T19:40:13.434Z,14.55
2022-10-06T19:45:17.021Z,13.32
2022-10-06T19:50:19.672Z,13.77
2022-10-06T19:55:23.423Z,11.93
2022-10-06T20:00:26.790Z,9.93
2022-10-06T20:05:29.398Z,10.02
2022-10-06T20:10:32.957Z,8.23
2022-10-06T20:15:35.495Z,13.02
2022-10-06T20:20:37.975Z,10.80
2022-10-06T20:25:40.427Z,11.20
2022-10-06T20:30:49.726Z,9.48
2022-10-06T20:35:52.049Z,9.55
2022-10-06T20:40:54.429Z,9.23
2022-10-06T20:45:57.493Z,10.27
2022-10-06T20:50:59.875Z,10.52
2022-10-06T20:56:02.249Z,13.93
2022-10-06T21:01:12.965Z,7.78
2022-10-06T21:06:16.630Z,13.73
2022-10-06T21:11:20.575Z,10.40
2022-10-06T21:16:44.115Z,7.57
2022-10-06T21:21:52.040Z,12.32
2022-10-06T21:26:54.715Z,6.95
2022-10-06T21:31:57.067Z,8.43
2022-10-06T21:36:59.481Z,10.40
2022-10-06T21:42:02.005Z,9.13
2022-10-06T21:47:04.506Z,11.57
2022-10-06T21:52:07.002Z,9.73
2022-10-06T21:57:09.428Z,14.43
2022-10-06T22:02:11.924Z,12.85
2022-10-06T22:07:14.266Z,9.00
2022-10-06T22:12:16.630Z,13.27
2022-10-06T22:17:18.955Z,9.68
2022-10-06T22:22:21.452Z,13.27
2022-10-06T22:27:25.255Z,12.98
2022-10-06T22:32:27.592Z,8.05
2022-10-06T22:37:30.105Z,7.80
2022-10-06T22:42:32.517Z,19.35
2022-10-06T22:47:34.841Z,17.38
2022-10-06T22:52:37.165Z,16.77
2022-10-06T22:57:39.505Z,18.65
2022-10-06T23:02:41.937Z,17.80
2022-10-06T23:07:44.638Z,20.60
2022-10-06T23:12:48.132Z,16.40
2022-10-06T23:17:50.601Z,14.25
2022-10-06T23:22:56.036Z,10.73
2022-10-06T23:27:59.051Z,9.55
2022-10-06T23:33:01.542Z,12.38
2022-10-06T23:38:03.857Z,10.40
2022-10-06T23:43:06.261Z,11.38
2022-10-06T23:48:08.681Z,13.40
2022-10-06T23:53:11.101Z,17.42
2022-10-06T23:58:14.844Z,11.10
